createdAt,value
2023-05-19T00:06:43.937Z,0.0000
2023-05-19T00:09:47.280Z,0.0000
2023-05-19T00:10:48.853Z,0.0000
2023-05-19T00:11:50.668Z,0.0000
2023-05-19T00:12:53.857Z,0.0000
2023-05-19T00:13:52.645Z,0.0000
2023-05-19T00:14:53.837Z,0.0000
2023-05-19T00:15:55.048Z,0.0000
2023-05-19T00:16:56.297Z,0.0000
2023-05-19T00:17:58.302Z,0.0000
2023-05-19T00:18:59.609Z,0.0000
2023-05-19T00:20:01.010Z,0.0000
2023-05-19T00:21:02.224Z,0.0000
2023-05-19T00:28:12.801Z,0.0000
2023-05-19T00:29:14.369Z,0.0000
2023-05-19T00:30:16.230Z,0.0000
2023-05-19T00:32:19.615Z,0.0000
2023-05-19T00:33:20.850Z,0.0000
2023-05-19T00:34:22.341Z,0.0000
2023-05-19T00:36:24.844Z,0.0000
2023-05-19T00:37:26.277Z,0.0000
2023-05-19T00:39:29.468Z,0.0000
2023-05-19T00:40:30.908Z,0.0000
2023-05-19T00:42:33.451Z,0.0000
2023-05-19T00:43:34.673Z,0.0000
2023-05-19T00:44:36.443Z,0.0000
2023-05-19T00:45:37.855Z,0.0000
2023-05-19T00:46:40.660Z,0.0000
2023-05-19T00:47:42.737Z,0.0000
2023-05-19T00:48:42.767Z,0.0000
2023-05-19T00:49:44.691Z,0.0000
2023-05-19T00:50:46.232Z,0.0000
2023-05-19T00:51:48.359Z,0.0000
2023-05-19T00:52:49.631Z,0.0000
2023-05-19T00:53:51.524Z,0.0000
2023-05-19T00:54:53.501Z,0.0000
2023-05-19T00:56:55.854Z,0.0000
2023-05-19T00:57:57.130Z,0.0000
2023-05-19T00:58:58.635Z,0.0000
2023-05-19T01:00:00.515Z,0.0000
2023-05-19T01:01:01.760Z,0.0000
2023-05-19T01:02:03.010Z,0.0000
2023-05-19T01:03:04.306Z,0.0000
2023-05-19T01:04:06.321Z,0.0000
2023-05-19T01:05:08.575Z,0.0000
2023-05-19T01:07:11.899Z,0.0000
2023-05-19T01:08:14.257Z,0.0000
2023-05-19T01:09:15.611Z,0.0000
2023-05-19T01:10:17.054Z,0.0000
2023-05-19T01:11:18.993Z,0.0000
2023-05-19T01:12:21.127Z,0.0000
2023-05-19T01:13:22.527Z,0.0000
2023-05-19T01:14:24.766Z,0.0000
2023-05-19T01:15:26.662Z,0.0000
2023-05-19T01:16:28.841Z,0.0000
2023-05-19T01:17:30.440Z,0.0000
2023-05-19T01:19:33.657Z,0.0000
2023-05-19T01:20:37.287Z,0.0000
2023-05-19T01:26:44.877Z,0.0000
2023-05-19T01:27:47.389Z,0.0000
2023-05-19T01:28:48.798Z,0.0000
2023-05-19T01:30:52.439Z,0.0000
2023-05-19T01:31:54.579Z,0.0000
2023-05-19T01:32:57.112Z,0.0000
2023-05-19T01:33:58.345Z,0.0000
2023-05-19T01:35:00.281Z,0.0000
2023-05-19T01:36:02.204Z,0.0000
2023-05-19T01:37:03.474Z,0.0000
2023-05-19T01:38:05.619Z,0.0000
2023-05-19T01:39:06.855Z,0.0000
2023-05-19T01:40:08.075Z,0.0000
2023-05-19T01:41:09.302Z,0.0000
2023-05-19T01:42:10.612Z,0.0000
2023-05-19T01:43:11.953Z,0.0000
2023-05-19T01:46:15.559Z,0.0000
2023-05-19T01:47:16.812Z,0.0000
2023-05-19T01:48:18.064Z,0.0000
2023-05-19T01:49:19.478Z,0.0000
2023-05-19T01:51:22.362Z,0.0000
2023-05-19T01:52:24.730Z,0.0000
2023-05-19T01:54:27.189Z,0.0000
2023-05-19T01:55:28.598Z,0.0000
2023-05-19T01:56:30.004Z,0.0000
2023-05-19T01:57:31.254Z,0.0000
2023-05-19T01:58:32.671Z,0.0000
2023-05-19T01:59:34.103Z,0.0000
2023-05-19T02:00:36.562Z,0.0000
2023-05-19T02:01:38.508Z,0.0000
2023-05-19T02:02:39.964Z,0.0000
2023-05-19T02:04:43.168Z,0.0000
2023-05-19T02:05:45.904Z,0.0000
2023-05-19T02:06:47.347Z,0.0000
2023-05-19T02:07:49.534Z,0.0000
2023-05-19T02:08:51.866Z,0.0000
2023-05-19T02:09:53.134Z,0.0000
2023-05-19T02:11:56.866Z,0.0000
2023-05-19T02:12:58.841Z,0.0000
2023-05-19T02:14:00.334Z,0.0000
2023-05-19T02:15:02.313Z,0.0000
2023-05-19T02:16:03.577Z,0.0000
2023-05-19T02:17:05.250Z,0.0000
2023-05-19T02:18:06.704Z,0.0000
2023-05-19T02:19:08.584Z,0.0000
2023-05-19T02:20:10.005Z,0.0000
2023-05-19T02:21:13.203Z,0.0000
2023-05-19T02:22:12.382Z,0.0000
2023-05-19T02:23:14.054Z,0.0000
2023-05-19T02:24:15.456Z,0.0000
2023-05-19T02:25:16.900Z,0.0000
2023-05-19T02:26:18.128Z,0.0000
2023-05-19T02:27:19.564Z,0.0000
2023-05-19T02:28:21.589Z,0.0000
2023-05-19T02:30:24.739Z,0.0000
2023-05-19T02:31:27.605Z,0.0000
2023-05-19T02:32:29.865Z,0.0000
2023-05-19T02:33:31.076Z,0.0000
2023-05-19T02:34:33.121Z,0.0000
2023-05-19T02:35:35.073Z,0.0000
2023-05-19T02:36:36.849Z,0.0000
2023-05-19T02:37:38.163Z,0.0000
2023-05-19T02:38:40.887Z,0.0000
2023-05-19T02:39:42.879Z,0.0000
2023-05-19T02:40:44.189Z,0.0000
2023-05-19T02:41:45.920Z,0.0000
2023-05-19T02:42:47.312Z,0.0000
2023-05-19T02:43:48.554Z,0.0000
2023-05-19T02:44:49.826Z,0.0000
2023-05-19T02:45:51.072Z,0.0000
2023-05-19T02:46:52.378Z,0.0000
2023-05-19T02:47:53.617Z,0.0000
2023-05-19T02:48:55.507Z,0.0000
2023-05-19T02:50:10.007Z,0.0000
2023-05-19T02:50:58.013Z,0.0000
2023-05-19T02:52:00.002Z,0.0000
2023-05-19T02:53:01.324Z,0.0000
2023-05-19T02:54:03.213Z,0.0000
2023-05-19T02:55:05.098Z,0.0000
2023-05-19T02:56:07.194Z,0.0000
2023-05-19T02:57:09.023Z,0.0000
2023-05-19T02:58:10.271Z,0.0000
2023-05-19T02:59:12.246Z,0.0000
2023-05-19T03:00:14.122Z,0.0000
2023-05-19T03:01:16.092Z,0.0000
2023-05-19T03:02:17.311Z,0.0000
2023-05-19T03:03:19.276Z,0.0000
2023-05-19T03:04:21.262Z,0.0000
2023-05-19T03:05:23.407Z,0.0000
2023-05-19T03:07:26.700Z,0.0000
2023-05-19T03:08:28.758Z,0.0000
2023-05-19T03:09:30.031Z,0.0000
2023-05-19T03:10:31.696Z,0.0000
2023-05-19T03:12:34.427Z,2.3636
2023-05-19T03:14:36.981Z,3.8182
2023-05-19T03:15:39.242Z,0.7273
2023-05-19T03:16:40.591Z,4.0000
2023-05-19T03:17:42.037Z,4.0000
2023-05-19T03:18:43.418Z,5.0909
2023-05-19T03:19:44.586Z,5.8182
2023-05-19T03:20:46.333Z,6.5455
2023-05-19T03:21:48.466Z,8.3636
2023-05-19T03:22:49.868Z,9.4545
2023-05-19T03:23:51.091Z,10.7273
2023-05-19T03:24:52.293Z,12.7273
2023-05-19T03:26:55.268Z,18.0000
2023-05-19T03:27:57.682Z,20.9091
2023-05-19T03:28:58.871Z,24.7273
2023-05-19T03:30:00.794Z,28.7273
2023-05-19T03:31:02.901Z,33.6364
2023-05-19T03:32:04.676Z,38.9091
2023-05-19T03:33:06.088Z,44.7273
2023-05-19T03:34:08.086Z,51.0909
2023-05-19T03:35:09.279Z,57.8182
2023-05-19T03:36:10.506Z,66.3636
2023-05-19T03:37:12.297Z,75.2727
2023-05-19T03:38:14.198Z,84.5455
2023-05-19T03:39:15.434Z,95.0909
2023-05-19T03:40:16.633Z,105.6364
2023-05-19T03:41:18.558Z,117.8182
2023-05-19T03:42:20.440Z,127.2727
2023-05-19T03:44:23.354Z,156.9091
2023-05-19T03:45:25.151Z,174.9091
2023-05-19T03:46:27.016Z,194.1818
2023-05-19T03:47:28.495Z,216.5455
2023-05-19T03:48:30.626Z,237.4545
2023-05-19T03:49:32.645Z,260.3636
2023-05-19T03:50:34.125Z,285.0909
2023-05-19T03:51:36.037Z,309.8182
2023-05-19T03:52:37.889Z,338.1818
2023-05-19T03:53:39.124Z,367.4546
2023-05-19T03:55:42.036Z,432.7273
2023-05-19T03:56:43.927Z,468.1818
2023-05-19T03:58:46.799Z,544.1818
2023-05-19T03:59:48.643Z,589.6364
2023-05-19T04:00:49.855Z,631.8182
2023-05-19T04:01:51.776Z,678.7273
2023-05-19T04:02:53.689Z,726.5455
2023-05-19T04:03:55.014Z,779.4545
2023-05-19T04:04:57.004Z,829.8182
2023-05-19T04:05:58.213Z,882.7273
2023-05-19T04:06:59.475Z,937.8182
2023-05-19T04:08:01.409Z,993.0909
2023-05-19T04:09:03.262Z,1052.5454
2023-05-19T04:10:04.496Z,1113.2727
2023-05-19T04:11:05.846Z,1175.8182
2023-05-19T04:12:07.661Z,1246.5454
2023-05-19T04:13:08.924Z,1322.3636
2023-05-19T04:15:11.212Z,1479.6364
2023-05-19T04:16:12.428Z,1561.2727
2023-05-19T04:17:13.633Z,1641.6364
2023-05-19T04:19:16.329Z,1783.6364
2023-05-19T04:20:17.607Z,1863.8182
2023-05-19T04:21:19.732Z,1951.2727
2023-05-19T04:23:22.727Z,2104.7273
2023-05-19T04:24:24.922Z,2180.3635
2023-05-19T04:25:26.105Z,2260.5454
2023-05-19T04:27:29.065Z,2408.5454
2023-05-19T04:28:30.265Z,2466.0000
2023-05-19T04:29:31.451Z,2525.6365
2023-05-19T04:30:33.432Z,2588.1819
2023-05-19T04:31:35.507Z,2648.7273
2023-05-19T04:32:37.473Z,2722.5454
2023-05-19T04:33:38.869Z,2818.3635
2023-05-19T04:34:40.935Z,2923.4546
2023-05-19T04:35:42.769Z,3011.6365
2023-05-19T04:36:43.980Z,3082.0000
2023-05-19T04:37:45.358Z,3152.3635
2023-05-19T04:38:47.153Z,3217.4546
2023-05-19T04:39:48.411Z,3363.2727
2023-05-19T04:40:49.577Z,3416.3635
2023-05-19T04:41:50.793Z,3393.4546
2023-05-19T04:42:52.042Z,3360.9092
2023-05-19T04:43:53.231Z,3471.8181
2023-05-19T04:44:55.092Z,3548.3635
2023-05-19T04:45:56.912Z,3591.6365
2023-05-19T04:46:58.767Z,3631.6365
2023-05-19T04:48:00.238Z,3725.2727
2023-05-19T04:49:02.403Z,3860.9092
2023-05-19T04:50:04.325Z,3958.7273
2023-05-19T04:51:06.278Z,4055.0908
2023-05-19T04:52:07.500Z,4277.8184
2023-05-19T04:53:08.783Z,4412.3638
2023-05-19T04:54:10.737Z,4420.9092
2023-05-19T04:55:11.926Z,4434.1816
2023-05-19T04:56:13.166Z,4346.1816
2023-05-19T04:57:15.066Z,4272.9092
2023-05-19T04:58:16.262Z,4274.9092
2023-05-19T04:59:17.451Z,4265.2729
2023-05-19T05:00:18.708Z,4154.9092
2023-05-19T05:01:20.576Z,4149.6362
2023-05-19T05:02:22.617Z,4394.5454
2023-05-19T05:03:24.665Z,4524.5454
2023-05-19T05:04:25.917Z,4710.7271
2023-05-19T05:05:27.818Z,5161.6362
2023-05-19T05:06:29.788Z,5421.4546
2023-05-19T05:07:32.232Z,5493.6362
2023-05-19T05:13:39.303Z,6755.4546
2023-05-19T05:14:40.541Z,6777.6362
2023-05-19T05:15:41.778Z,6919.4546
2023-05-19T05:16:43.064Z,7047.8184
2023-05-19T05:17:44.671Z,7310.5454
2023-05-19T05:18:46.489Z,7323.6362
2023-05-19T05:19:48.381Z,7154.3638
2023-05-19T05:20:49.597Z,7108.9092
2023-05-19T05:21:52.336Z,7218.7271
2023-05-19T05:24:53.971Z,6499.0908
2023-05-19T05:25:55.863Z,6318.1816
2023-05-19T05:26:57.133Z,6367.0908
2023-05-19T05:27:59.053Z,6623.0908
2023-05-19T05:31:02.377Z,5948.1816
2023-05-19T05:35:06.844Z,4813.4546
2023-05-19T05:36:08.033Z,4708.1816
2023-05-19T05:37:09.265Z,4662.9092
2023-05-19T05:38:11.416Z,4629.4546
2023-05-19T05:39:12.790Z,4323.0908
2023-05-19T05:40:14.776Z,4037.6365
2023-05-19T05:41:16.055Z,4032.7273
2023-05-19T05:42:17.383Z,3895.8181
2023-05-19T05:43:18.623Z,3742.5454
2023-05-19T05:44:19.866Z,3764.1819
2023-05-19T05:45:21.145Z,3854.0000
2023-05-19T05:46:22.503Z,3887.2727
2023-05-19T05:47:23.745Z,3894.7273
2023-05-19T05:48:25.007Z,3784.1819
2023-05-19T05:49:26.251Z,3644.3635
2023-05-19T05:50:29.086Z,3642.3635
2023-05-19T05:51:30.343Z,3592.3635
2023-05-19T05:52:32.167Z,3458.9092
2023-05-19T05:53:33.437Z,3310.9092
2023-05-19T05:54:34.695Z,3373.2727
2023-05-19T05:55:36.531Z,3413.8181
2023-05-19T05:56:37.808Z,3412.3635
2023-05-19T05:57:39.080Z,3496.1819
2023-05-19T05:58:40.967Z,3487.8181
2023-05-19T05:59:42.833Z,3338.0000
2023-05-19T06:00:44.735Z,3280.3635
2023-05-19T06:01:46.848Z,3190.0000
2023-05-19T06:02:48.904Z,3100.9092
2023-05-19T06:03:50.238Z,3031.8181
2023-05-19T06:05:53.621Z,3186.7273
2023-05-19T06:06:54.919Z,3289.0908
2023-05-19T06:07:56.198Z,3374.5454
2023-05-19T06:08:57.506Z,3307.2727
2023-05-19T06:10:00.012Z,3190.5454
2023-05-19T06:11:01.271Z,3177.4546
2023-05-19T06:13:04.755Z,3284.5454
2023-05-19T06:14:06.668Z,3325.0908
2023-05-19T06:15:07.933Z,3276.0000
2023-05-19T06:16:10.396Z,3315.0908
2023-05-19T06:17:12.754Z,3362.9092
2023-05-19T06:18:14.087Z,3312.9092
2023-05-19T06:19:15.401Z,3278.5454
2023-05-19T06:21:18.295Z,3127.2727
2023-05-19T06:22:19.535Z,3092.9092
2023-05-19T06:24:21.861Z,3017.4546
2023-05-19T06:25:23.148Z,3032.9092
2023-05-19T06:26:24.454Z,3113.6365
2023-05-19T06:27:25.691Z,3060.9092
2023-05-19T06:28:28.125Z,3104.1819
2023-05-19T06:29:29.399Z,3226.0000
2023-05-19T06:30:31.586Z,3260.0000
2023-05-19T06:31:34.022Z,3246.1819
2023-05-19T06:32:35.880Z,3340.3635
2023-05-19T06:33:37.162Z,3273.2727
2023-05-19T06:34:39.091Z,3002.7273
2023-05-19T06:35:41.038Z,2753.8181
2023-05-19T06:36:42.420Z,2742.7273
2023-05-19T06:37:45.331Z,2955.8181
2023-05-19T06:45:52.851Z,3229.2727
2023-05-19T06:46:54.146Z,3051.8181
2023-05-19T06:47:55.539Z,2944.7273
2023-05-19T06:50:59.768Z,2923.0908
2023-05-19T06:53:03.579Z,3028.1819
2023-05-19T06:54:04.950Z,3210.7273
2023-05-19T06:55:06.519Z,3648.0000
2023-05-19T06:56:07.869Z,4024.9092
2023-05-19T06:57:33.224Z,4240.1816
2023-05-19T07:01:14.600Z,3785.4546
2023-05-19T07:02:16.648Z,3977.6365
2023-05-19T07:03:19.126Z,4268.0000
2023-05-19T07:04:20.448Z,4666.0000
2023-05-19T07:05:21.682Z,5011.2729
2023-05-19T07:06:23.698Z,5011.8184
2023-05-19T07:07:25.513Z,5605.6362
2023-05-19T07:08:26.821Z,6080.0000
2023-05-19T07:09:28.100Z,6140.1816
2023-05-19T07:10:30.075Z,6158.7271
2023-05-19T07:11:31.373Z,6740.0000
2023-05-19T07:12:33.679Z,8144.9092
2023-05-19T07:13:34.945Z,9106.9092
2023-05-19T07:14:36.957Z,9076.0000
2023-05-19T07:15:38.191Z,8525.0908
2023-05-19T07:16:39.429Z,8008.9092
2023-05-19T07:18:42.648Z,7107.8184
2023-05-19T07:19:44.709Z,7752.1816
2023-05-19T07:20:46.015Z,7859.6362
2023-05-19T07:22:49.026Z,9165.6367
2023-05-19T07:23:51.001Z,10039.0908
2023-05-19T07:24:52.280Z,9855.8184
2023-05-19T07:25:54.269Z,10730.7275
2023-05-19T07:26:56.906Z,10904.9092
2023-05-19T07:27:59.243Z,10892.9092
2023-05-19T07:29:12.214Z,11780.3633
2023-05-19T07:30:02.199Z,11053.0527
2023-05-19T07:31:03.440Z,11365.2725
2023-05-19T07:32:04.737Z,12825.6367
2023-05-19T07:33:06.089Z,12218.9092
2023-05-19T07:34:07.353Z,10556.7275
2023-05-19T07:35:08.622Z,10001.8184
2023-05-19T07:36:09.876Z,9060.1816
2023-05-19T07:37:11.150Z,8768.9092
2023-05-19T07:38:12.472Z,9008.0000
2023-05-19T07:43:18.227Z,13462.7275
2023-05-19T07:44:19.525Z,14022.3633
2023-05-19T07:46:21.943Z,16624.0000
2023-05-19T07:47:23.768Z,17421.0918
2023-05-19T07:49:26.741Z,19130.1816
2023-05-19T07:50:28.808Z,19133.0918
2023-05-19T07:51:30.725Z,16805.8184
2023-05-19T07:52:31.986Z,16029.0908
2023-05-19T07:53:34.001Z,19208.7266
2023-05-19T07:54:35.353Z,20449.4551
2023-05-19T07:55:36.605Z,20125.0918
2023-05-19T07:56:37.872Z,20734.5449
2023-05-19T07:57:39.822Z,21745.4551
2023-05-19T07:58:41.761Z,21037.0918
2023-05-19T07:59:42.993Z,20363.6367
2023-05-19T08:00:45.208Z,19025.4551
2023-05-19T08:01:47.047Z,17184.0000
2023-05-19T08:02:49.451Z,15918.5459
2023-05-19T08:04:52.951Z,17863.2734
2023-05-19T08:05:54.936Z,15965.8184
2023-05-19T08:06:56.220Z,13022.1816
2023-05-19T08:07:57.504Z,11876.1816
2023-05-19T08:08:59.334Z,10701.0908
2023-05-19T08:10:00.605Z,9287.8184
2023-05-19T08:11:01.943Z,8870.3633
2023-05-19T08:12:03.230Z,9054.1816
2023-05-19T08:13:07.040Z,9553.0908
2023-05-19T08:16:09.281Z,11710.3633
2023-05-19T08:17:11.121Z,14432.3633
2023-05-19T08:18:13.021Z,14611.6367
2023-05-19T08:19:14.367Z,13066.7275
2023-05-19T08:20:16.285Z,12063.8184
2023-05-19T08:21:18.400Z,12344.1816
2023-05-19T08:22:20.325Z,13633.0908
2023-05-19T08:23:22.250Z,14190.1816
2023-05-19T08:24:25.313Z,14517.0908
2023-05-19T08:25:24.462Z,14002.6670
2023-05-19T08:26:26.324Z,12765.6367
2023-05-19T08:27:31.079Z,11836.9092
2023-05-19T08:40:43.462Z,13779.6367
2023-05-19T08:41:44.805Z,14138.9092
2023-05-19T08:45:01.321Z,18526.5449
2023-05-19T08:45:48.796Z,19681.8828
2023-05-19T08:46:50.129Z,18331.6367
2023-05-19T08:47:51.505Z,16440.7266
2023-05-19T08:48:52.830Z,16657.4551
2023-05-19T08:49:54.132Z,18603.6367
2023-05-19T08:50:55.413Z,22002.9082
2023-05-19T08:51:56.695Z,23896.7266
2023-05-19T08:52:57.995Z,24606.5449
2023-05-19T08:53:59.207Z,24208.0000
2023-05-19T08:55:00.490Z,21768.7266
2023-05-19T08:56:01.770Z,21265.4551
2023-05-19T08:57:03.152Z,22586.1816
2023-05-19T08:58:04.454Z,24440.7266
2023-05-19T08:59:05.735Z,23723.6367
2023-05-19T09:00:07.044Z,23312.0000
2023-05-19T09:01:08.390Z,24282.1816
2023-05-19T09:02:09.629Z,24288.0000
2023-05-19T09:03:18.105Z,23428.3633
2023-05-19T09:04:12.921Z,22873.5996
2023-05-19T09:05:14.284Z,21509.8184
2023-05-19T09:06:15.582Z,21157.8184
2023-05-19T09:07:16.911Z,21640.7266
2023-05-19T09:08:18.253Z,20762.1816
2023-05-19T09:09:19.796Z,18378.1816
2023-05-19T09:10:21.134Z,17083.6367
2023-05-19T09:11:22.584Z,17390.5449
2023-05-19T09:12:23.962Z,19914.1816
2023-05-19T09:14:26.494Z,19204.3633
2023-05-19T09:15:27.778Z,17210.1816
2023-05-19T09:16:30.184Z,18226.9082
2023-05-19T09:17:31.759Z,19713.4551
2023-05-19T09:18:33.106Z,19778.9082
2023-05-19T09:19:34.493Z,19403.6367
2023-05-19T09:20:35.835Z,19159.2734
2023-05-19T09:21:37.140Z,18535.2734
2023-05-19T09:22:38.454Z,18612.3633
2023-05-19T09:23:39.779Z,18528.0000
2023-05-19T09:25:42.211Z,16802.9082
2023-05-19T09:26:43.513Z,15780.3633
2023-05-19T09:27:44.805Z,14956.0000
2023-05-19T09:28:46.132Z,14171.4541
2023-05-19T09:29:47.423Z,13987.4541
2023-05-19T09:30:48.697Z,14270.9092
2023-05-19T09:31:50.033Z,14654.1816
2023-05-19T09:43:02.731Z,23873.4551
2023-05-19T09:44:03.973Z,25666.9082
2023-05-19T09:45:05.254Z,25037.0918
2023-05-19T09:46:06.782Z,22116.3633
2023-05-19T09:47:08.478Z,20941.0918
2023-05-19T09:48:09.712Z,22602.1816
2023-05-19T09:49:11.030Z,23650.9082
2023-05-19T09:50:12.272Z,22160.0000
2023-05-19T09:51:13.510Z,22715.6367
2023-05-19T09:52:14.777Z,22584.7266
2023-05-19T09:53:16.525Z,22395.6367
2023-05-19T09:54:17.809Z,23290.1816
2023-05-19T09:55:19.091Z,23850.1816
2023-05-19T09:56:20.377Z,21959.2734
2023-05-19T09:57:21.751Z,19405.0918
2023-05-19T09:58:23.037Z,17786.1816
2023-05-19T09:59:24.366Z,17330.9082
2023-05-19T10:00:25.657Z,17998.5449
2023-05-19T10:01:26.990Z,18176.0000
2023-05-19T10:02:28.512Z,20039.2734
2023-05-19T10:03:29.878Z,24552.7266
2023-05-19T10:04:31.465Z,27064.7266
2023-05-19T10:05:32.957Z,26720.0000
2023-05-19T10:06:34.511Z,25946.1816
2023-05-19T10:07:35.753Z,25876.3633
2023-05-19T10:08:37.047Z,25226.1816
2023-05-19T10:09:38.298Z,24769.4551
2023-05-19T10:10:39.657Z,25841.4551
2023-05-19T10:11:40.909Z,28075.6367
2023-05-19T10:12:42.230Z,29597.0918
2023-05-19T10:14:45.045Z,29873.4551
2023-05-19T10:15:57.067Z,27761.4551
2023-05-19T10:16:48.029Z,24902.4004
2023-05-19T10:17:49.475Z,22394.1816
2023-05-19T10:18:50.840Z,21665.4551
2023-05-19T10:19:52.128Z,23626.1816
2023-05-19T10:20:53.537Z,20894.5449
2023-05-19T10:21:54.870Z,20311.2734
2023-05-19T10:22:56.225Z,23922.9082
2023-05-19T10:23:57.519Z,26231.2734
2023-05-19T10:28:02.261Z,26666.1816
2023-05-19T10:48:25.660Z,24197.8184
2023-05-19T10:49:26.965Z,26354.9082
2023-05-19T10:50:28.372Z,26955.6367
2023-05-19T10:51:29.690Z,26194.9082
2023-05-19T10:52:31.014Z,26123.6367
2023-05-19T10:54:33.604Z,25403.6367
2023-05-19T10:55:35.083Z,25828.3633
2023-05-19T10:56:36.781Z,25573.8184
2023-05-19T10:57:38.182Z,25954.9082
2023-05-19T10:58:39.504Z,28283.6367
2023-05-19T10:59:40.889Z,28810.1816
2023-05-19T11:00:42.223Z,28574.5449
2023-05-19T11:01:43.762Z,30741.8184
2023-05-19T11:02:45.091Z,29527.2734
2023-05-19T11:03:46.455Z,28740.3633
2023-05-19T11:04:50.239Z,26935.2734
2023-05-19T11:05:50.336Z,21468.9531
2023-05-19T11:06:51.801Z,17266.5449
2023-05-19T11:07:53.198Z,12864.3633
2023-05-19T11:08:54.535Z,16294.5459
2023-05-19T11:09:55.836Z,17338.1816
2023-05-19T11:10:57.224Z,18452.3633
2023-05-19T11:11:58.528Z,20213.8184
2023-05-19T11:12:59.933Z,22708.3633
2023-05-19T11:15:02.367Z,28064.0000
2023-05-19T11:16:03.753Z,29003.6367
2023-05-19T11:17:05.155Z,27125.8184
2023-05-19T11:18:06.550Z,27230.5449
2023-05-19T11:19:08.017Z,29714.9082
2023-05-19T11:20:09.373Z,31536.0000
2023-05-19T11:21:10.702Z,32279.2734
2023-05-19T11:22:12.027Z,30677.8184
2023-05-19T11:23:13.383Z,27198.5449
2023-05-19T11:24:14.635Z,24161.4551
2023-05-19T11:25:15.957Z,20472.7266
2023-05-19T11:26:17.256Z,18410.1816
2023-05-19T11:27:18.573Z,17320.7266
2023-05-19T11:28:20.139Z,16445.0918
2023-05-19T11:29:21.532Z,15851.6367
2023-05-19T11:30:22.831Z,16958.5449
2023-05-19T11:31:24.147Z,18696.7266
2023-05-19T11:32:25.522Z,19933.0918
2023-05-19T11:33:26.835Z,21178.1816
2023-05-19T11:34:28.155Z,22919.2734
2023-05-19T11:36:30.667Z,26424.7266
2023-05-19T11:37:31.956Z,26974.5449
2023-05-19T11:38:33.263Z,26718.5449
2023-05-19T11:39:34.596Z,28318.5449
2023-05-19T11:40:35.898Z,30801.4551
2023-05-19T11:41:37.277Z,46021.8164
2023-05-19T11:42:38.580Z,47684.3633
2023-05-19T11:43:39.912Z,54016.0000
2023-05-19T11:44:41.300Z,53328.0000
2023-05-19T11:46:43.877Z,45440.0000
2023-05-19T11:48:00.284Z,48061.0898
2023-05-19T11:48:46.966Z,46883.1992
2023-05-19T11:50:14.740Z,47632.0000
2023-05-19T11:51:16.125Z,51245.0898
2023-05-19T11:52:17.519Z,50789.8164
2023-05-19T11:53:18.995Z,45009.4531
2023-05-19T11:54:20.557Z,44395.6367
2023-05-19T11:55:21.956Z,45380.3633
2023-05-19T11:56:23.355Z,45818.1836
2023-05-19T11:57:24.726Z,48299.6367
2023-05-19T11:58:26.072Z,48696.7266
2023-05-19T11:59:27.480Z,51540.3633
2023-05-19T12:00:28.916Z,51621.8164
2023-05-19T12:01:30.285Z,51274.1836
2023-05-19T12:02:31.874Z,51444.3633
2023-05-19T12:03:33.407Z,51533.0898
2023-05-19T12:04:34.864Z,50536.7266
2023-05-19T12:05:39.915Z,48766.5469
2023-05-19T12:06:38.125Z,45353.6016
2023-05-19T12:07:39.636Z,44538.1836
2023-05-19T12:08:40.983Z,42779.6367
2023-05-19T12:09:42.387Z,41200.0000
2023-05-19T12:10:43.802Z,39841.4531
2023-05-19T12:11:45.150Z,39133.0898
2023-05-19T12:12:46.557Z,37565.0898
2023-05-19T12:15:50.453Z,33838.5469
2023-05-19T12:16:52.042Z,33668.3633
2023-05-19T12:17:53.551Z,33687.2734
2023-05-19T12:18:54.951Z,33776.0000
2023-05-19T12:19:56.376Z,36154.1836
2023-05-19T12:20:58.032Z,38941.0898
2023-05-19T12:21:59.444Z,44789.8164
2023-05-19T12:23:01.036Z,43246.5469
2023-05-19T12:24:02.678Z,41624.7266
2023-05-19T12:26:05.281Z,45940.3633
2023-05-19T12:27:06.720Z,45410.9102
2023-05-19T12:28:08.190Z,46049.4531
2023-05-19T12:29:09.704Z,42992.0000
2023-05-19T12:30:11.284Z,46938.1836
2023-05-19T12:31:12.750Z,43682.9102
2023-05-19T12:32:14.146Z,45365.8164
2023-05-19T12:33:15.637Z,47972.3633
2023-05-19T12:34:17.035Z,44954.1836
2023-05-19T12:35:18.553Z,38389.8164
2023-05-19T12:37:21.221Z,46478.5469
2023-05-19T12:55:43.824Z,17950.5449
2023-05-19T12:56:45.186Z,17922.9082
2023-05-19T12:57:47.982Z,18648.7266
2023-05-19T12:58:47.276Z,19552.0000
2023-05-19T12:59:48.601Z,20514.9082
2023-05-19T13:00:50.180Z,22203.6367
2023-05-19T13:01:51.765Z,24298.1816
2023-05-19T13:03:54.478Z,26586.1816
2023-05-19T13:04:56.115Z,28437.8184
2023-05-19T13:05:57.485Z,31547.6367
2023-05-19T13:06:58.958Z,35970.9102
2023-05-19T13:08:00.362Z,36562.9102
2023-05-19T13:09:01.695Z,37586.9102
2023-05-19T13:10:03.081Z,34653.0898
2023-05-19T13:11:04.440Z,28810.1816
2023-05-19T13:12:05.847Z,22635.6367
2023-05-19T13:14:08.374Z,14508.3633
2023-05-19T13:15:09.833Z,11862.1816
2023-05-19T13:16:11.273Z,10342.7275
2023-05-19T13:19:24.986Z,8516.1816
2023-05-19T13:20:17.170Z,8377.0000
2023-05-19T13:21:18.521Z,8804.1816
2023-05-19T13:22:19.853Z,9346.1816
2023-05-19T13:23:21.258Z,10182.0000
2023-05-19T13:24:22.642Z,11162.3633
2023-05-19T13:25:24.026Z,13081.8184
2023-05-19T13:26:25.425Z,14977.6367
2023-05-19T13:27:26.806Z,16206.5459
2023-05-19T13:28:28.221Z,17688.7266
2023-05-19T13:29:29.604Z,18797.0918
2023-05-19T13:30:31.050Z,19342.5449
2023-05-19T13:31:32.635Z,19373.0918
2023-05-19T13:32:34.070Z,18485.8184
2023-05-19T13:33:35.573Z,17381.8184
2023-05-19T13:35:38.432Z,14325.2725
2023-05-19T13:36:40.045Z,12521.6367
2023-05-19T13:37:41.455Z,11298.7275
2023-05-19T13:38:43.006Z,10770.7275
2023-05-19T13:39:44.314Z,10800.5459
2023-05-19T13:40:45.724Z,11167.6367
2023-05-19T13:41:47.189Z,11756.7275
2023-05-19T13:42:48.617Z,12526.0000
2023-05-19T13:43:49.972Z,13435.8184
2023-05-19T13:44:51.529Z,14212.5459
2023-05-19T13:45:52.936Z,14797.6367
2023-05-19T13:47:55.685Z,16138.1816
2023-05-19T13:48:57.046Z,17186.9082
2023-05-19T13:49:58.478Z,18478.5449
2023-05-19T13:50:59.891Z,19685.8184
2023-05-19T13:52:02.167Z,20413.0918
2023-05-19T13:53:03.542Z,20423.2734
2023-05-19T13:54:05.301Z,19794.2852
2023-05-19T13:55:06.695Z,18616.7266
2023-05-19T13:56:08.255Z,16885.8184
2023-05-19T13:57:09.606Z,14483.2725
2023-05-19T13:58:11.048Z,12408.9092
2023-05-19T13:59:12.581Z,11154.0000
2023-05-19T14:01:15.245Z,9642.5459
2023-05-19T14:02:16.676Z,9627.8184
2023-05-19T14:03:18.126Z,9291.0908
2023-05-19T14:04:19.697Z,8618.3633
2023-05-19T14:05:21.522Z,8012.1816
2023-05-19T14:06:22.894Z,7328.3638
2023-05-19T14:07:24.217Z,6633.0908
2023-05-19T14:08:25.650Z,6035.8184
2023-05-19T14:09:28.080Z,5625.8184
2023-05-19T14:10:27.875Z,5510.6665
2023-05-19T14:11:29.219Z,5631.8184
2023-05-19T14:12:38.159Z,5903.0908
2023-05-19T14:13:36.123Z,5894.0000
2023-05-19T14:14:34.543Z,5579.0000
2023-05-19T14:15:35.978Z,5537.4546
2023-05-19T14:16:38.286Z,5866.1816
2023-05-19T14:17:39.889Z,6510.1816
2023-05-19T14:18:41.344Z,7256.5454
2023-05-19T14:19:42.783Z,8244.5459
2023-05-19T14:21:45.381Z,9187.4541
2023-05-19T14:22:46.793Z,9637.8184
2023-05-19T14:23:48.166Z,10324.7275
2023-05-19T14:24:49.491Z,10850.1816
2023-05-19T14:25:50.868Z,10694.5459
2023-05-19T14:26:52.227Z,10277.6367
2023-05-19T14:27:53.655Z,9784.1816
2023-05-19T14:28:55.003Z,9182.9092
2023-05-19T14:29:56.703Z,8738.5459
2023-05-19T14:31:59.865Z,7900.7271
2023-05-19T14:33:01.364Z,7876.1816
2023-05-19T14:34:02.807Z,7733.6362
2023-05-19T14:35:04.178Z,7772.9092
2023-05-19T14:36:05.604Z,7854.7271
2023-05-19T14:37:06.993Z,7908.5454
2023-05-19T14:38:08.384Z,8015.2729
2023-05-19T14:39:09.759Z,8146.5454
2023-05-19T14:41:12.383Z,8431.4541
2023-05-19T14:42:13.789Z,8558.0000